Time;durP1;ratioP1;P1;durP2;ratioP2;P2;SDS_P1;SDS_P2;PMS_P1;PMS_P2;Temp;Humidity;BMP_temperature;BMP_pressure;BME280_temperature;BME280_humidity;BME280_pressure;Samples;Min_cycle;Max_cycle;Signal;HPM_P1;HPM_P2
2023/10/24 00:00:49;;;;;;;27.20;13.32;;;11.20;99.90;;;;;;6250927;22;20019;-86
2023/10/24 00:03:14;;;;;;;26.50;13.93;;;11.60;99.90;;;;;;6277185;22;20045;-86
2023/10/24 00:05:40;;;;;;;27.05;13.52;;;10.10;99.90;;;;;;6249183;22;20023;-86
2023/10/24 00:08:06;;;;;;;30.33;13.57;;;11.30;99.90;;;;;;6250555;22;20019;-86
2023/10/24 00:10:31;;;;;;;27.02;13.68;;;10.10;99.90;;;;;;6276243;22;20016;-86
2023/10/24 00:12:57;;;;;;;28.67;13.75;;;10.20;99.90;;;;;;6249246;22;20043;-86
2023/10/24 00:15:22;;;;;;;26.83;13.32;;;11.60;99.90;;;;;;6249790;22;20016;-86
2023/10/24 00:17:48;;;;;;;28.17;14.00;;;10.80;99.90;;;;;;6252490;22;20041;-87
2023/10/24 00:20:13;;;;;;;31.38;13.88;;;10.90;99.90;;;;;;6249036;22;20369;-87
2023/10/24 00:22:39;;;;;;;31.60;14.27;;;10.10;99.90;;;;;;6250693;22;20011;-87
2023/10/24 00:25:05;;;;;;;36.23;14.27;;;10.10;99.90;;;;;;6280476;22;20015;-87
2023/10/24 00:27:31;;;;;;;30.90;14.20;;;10.10;99.90;;;;;;6276627;22;20015;-88
2023/10/24 00:29:57;;;;;;;33.58;15.18;;;10.10;99.90;;;;;;6250552;22;20057;-87
2023/10/24 00:32:22;;;;;;;32.92;14.63;;;10.30;99.90;;;;;;6277029;22;20012;-87
2023/10/24 00:34:48;;;;;;;33.97;14.68;;;10.10;99.90;;;;;;6249521;22;20047;-88
2023/10/24 00:37:14;;;;;;;31.27;14.82;;;10.10;99.90;;;;;;6251309;22;20123;-87
2023/10/24 00:39:39;;;;;;;31.02;14.50;;;10.10;99.90;;;;;;6249173;22;20429;-87
2023/10/24 00:42:05;;;;;;;34.53;15.57;;;10.10;99.90;;;;;;6250233;22;20020;-88
2023/10/24 00:44:32;;;;;;;33.38;15.05;;;10.10;99.90;;;;;;6277204;22;20069;-87
2023/10/24 00:46:58;;;;;;;33.80;15.25;;;10.20;99.90;;;;;;6250110;22;20047;-87
2023/10/24 00:49:25;;;;;;;34.50;14.70;;;10.20;99.90;;;;;;6248695;22;20042;-87
2023/10/24 00:51:52;;;;;;;34.83;15.45;;;11.20;99.90;;;;;;6250872;22;20019;-88
2023/10/24 00:54:17;;;;;;;35.08;14.63;;;10.20;99.90;;;;;;6248084;22;20031;-88
2023/10/24 00:56:46;;;;;;;33.55;15.45;;;10.80;99.90;;;;;;6249846;22;20012;-88
2023/10/24 00:59:13;;;;;;;36.38;15.70;;;10.20;99.90;;;;;;6249749;22;20024;-88
2023/10/24 01:01:39;;;;;;;34.33;14.23;;;10.20;99.90;;;;;;6249019;22;20092;-88
2023/10/24 01:04:05;;;;;;;34.58;15.35;;;10.20;99.90;;;;;;6249383;22;20065;-88
2023/10/24 01:06:31;;;;;;;33.50;15.15;;;10.20;99.90;;;;;;6249821;22;20094;-88
2023/10/24 01:08:56;;;;;;;34.08;15.02;;;11.10;99.90;;;;;;6249270;22;20058;-88
2023/10/24 01:11:23;;;;;;;33.47;15.07;;;10.30;99.90;;;;;;6250415;22;20012;-88
2023/10/24 01:13:49;;;;;;;29.58;14.35;;;10.60;99.90;;;;;;6250380;22;20463;-88
2023/10/24 01:16:16;;;;;;;29.95;14.38;;;10.50;99.90;;;;;;6248778;22;20015;-88
2023/10/24 01:18:42;;;;;;;32.33;14.90;;;10.30;99.90;;;;;;6249641;22;20020;-88
2023/10/24 01:21:08;;;;;;;35.30;15.15;;;11.00;99.90;;;;;;6249253;22;20046;-88
2023/10/24 01:23:35;;;;;;;32.78;14.43;;;10.90;99.90;;;;;;6251342;22;20027;-88
2023/10/24 01:26:02;;;;;;;30.90;13.95;;;11.60;99.90;;;;;;6249890;22;20030;-89
2023/10/24 01:28:29;;;;;;;29.92;14.48;;;10.30;99.90;;;;;;6277687;22;20365;-89
2023/10/24 01:30:54;;;;;;;33.22;14.00;;;10.60;99.90;;;;;;6249802;22;20022;-88
2023/10/24 01:33:21;;;;;;;33.88;14.55;;;11.10;99.90;;;;;;6252153;22;20015;-89
2023/10/24 01:35:47;;;;;;;28.27;13.85;;;11.30;99.90;;;;;;6248542;22;20011;-88
2023/10/24 01:38:12;;;;;;;31.02;14.73;;;11.50;99.90;;;;;;6249609;22;20086;-89
2023/10/24 01:40:38;;;;;;;29.70;14.25;;;11.30;99.90;;;;;;6276391;22;20026;-88
2023/10/24 01:43:04;;;;;;;30.83;15.00;;;11.10;99.90;;;;;;6249253;22;20060;-89
2023/10/24 01:45:29;;;;;;;30.15;14.15;;;11.00;99.90;;;;;;6249379;22;20037;-88
2023/10/24 01:47:55;;;;;;;30.70;14.45;;;10.30;99.90;;;;;;6255078;22;20011;-89
2023/10/24 01:50:21;;;;;;;28.02;13.68;;;10.40;99.90;;;;;;6248088;22;20399;-89
2023/10/24 01:52:46;;;;;;;32.50;14.02;;;10.30;99.90;;;;;;6249713;22;20011;-89
2023/10/24 01:55:12;;;;;;;31.27;14.35;;;10.40;99.90;;;;;;6253281;22;20447;-88
2023/10/24 01:57:37;;;;;;;27.67;13.00;;;10.40;99.90;;;;;;6276229;22;20146;-89
2023/10/24 02:00:03;;;;;;;29.05;13.68;;;10.40;99.90;;;;;;6249898;22;20404;-88
2023/10/24 02:02:29;;;;;;;33.95;14.02;;;9.70;99.90;;;;;;6249136;22;20436;-88
2023/10/24 02:04:55;;;;;;;30.55;13.85;;;10.40;99.90;;;;;;6247922;22;20047;-89
2023/10/24 02:07:20;;;;;;;31.13;13.98;;;11.30;99.90;;;;;;6248589;22;20094;-88
2023/10/24 02:09:46;;;;;;;30.83;14.00;;;10.40;99.90;;;;;;6249100;22;20011;-88
2023/10/24 02:12:12;;;;;;;28.63;13.77;;;10.40;99.90;;;;;;6247870;22;20073;-89
2023/10/24 02:14:38;;;;;;;29.00;13.60;;;10.40;99.90;;;;;;6249788;22;20023;-88
2023/10/24 02:17:04;;;;;;;31.27;14.82;;;11.40;99.90;;;;;;6249515;22;20034;-88
2023/10/24 02:19:30;;;;;;;32.65;14.88;;;10.50;99.90;;;;;;6248326;22;20487;-88
2023/10/24 02:21:55;;;;;;;30.58;14.43;;;10.40;99.90;;;;;;6249005;22;20095;-88
2023/10/24 02:24:21;;;;;;;34.22;14.38;;;10.80;99.90;;;;;;6247797;22;20098;-88
2023/10/24 02:26:47;;;;;;;32.70;14.40;;;10.40;99.90;;;;;;6248376;22;20318;-88
2023/10/24 02:29:12;;;;;;;33.03;14.45;;;10.50;99.90;;;;;;6249467;22;20070;-88
2023/10/24 02:31:38;;;;;;;29.40;14.48;;;10.50;99.90;;;;;;6249484;22;20360;-88
2023/10/24 02:34:03;;;;;;;33.10;14.18;;;10.50;99.90;;;;;;6248226;22;20020;-88
2023/10/24 02:36:29;;;;;;;30.65;14.05;;;10.50;99.90;;;;;;6248782;22;20015;-88
2023/10/24 02:38:55;;;;;;;34.72;15.32;;;11.70;99.90;;;;;;6249339;22;20386;-89
2023/10/24 02:41:21;;;;;;;29.55;14.93;;;11.30;99.90;;;;;;6247475;22;20390;-88
2023/10/24 02:43:47;;;;;;;36.95;15.45;;;11.90;99.90;;;;;;6249114;22;20414;-89
2023/10/24 02:46:13;;;;;;;32.65;14.50;;;10.60;99.90;;;;;;6247819;22;20047;-88
2023/10/24 02:48:38;;;;;;;34.60;14.90;;;10.80;99.90;;;;;;6248839;22;20047;-88
2023/10/24 02:51:04;;;;;;;33.63;15.00;;;11.40;99.90;;;;;;6249020;22;20016;-89
2023/10/24 02:53:30;;;;;;;34.08;15.85;;;10.50;99.90;;;;;;6248337;22;20016;-89
2023/10/24 02:56:00;;;;;;;35.95;15.48;;;10.60;99.90;;;;;;6251820;22;20387;-89
2023/10/24 02:58:34;;;;;;;35.55;15.38;;;10.50;99.90;;;;;;6249353;22;20019;-89
2023/10/24 03:01:04;;;;;;;31.42;14.57;;;12.00;99.90;;;;;;6247966;22;20031;-89
2023/10/24 03:03:30;;;;;;;33.72;15.02;;;11.40;99.90;;;;;;6248893;22;20019;-89
2023/10/24 03:05:56;;;;;;;36.75;15.15;;;10.50;99.90;;;;;;6248449;22;20023;-89
2023/10/24 03:08:22;;;;;;;33.13;15.00;;;11.90;99.90;;;;;;6250993;22;20019;-89
2023/10/24 03:10:47;;;;;;;35.92;15.18;;;10.90;99.90;;;;;;6248243;22;20031;-89
2023/10/24 03:13:13;;;;;;;35.40;15.23;;;11.60;99.90;;;;;;6248945;22;20015;-89
2023/10/24 03:15:39;;;;;;;34.65;15.55;;;10.40;99.90;;;;;;6248206;22;20023;-90
2023/10/24 03:18:05;;;;;;;30.08;15.75;;;11.50;99.90;;;;;;6254453;22;20484;-89
2023/10/24 03:20:30;;;;;;;35.88;17.05;;;10.70;99.90;;;;;;6247708;22;20054;-89
2023/10/24 03:22:56;;;;;;;38.45;17.85;;;11.80;99.90;;;;;;6248216;22;20022;-89
2023/10/24 03:25:26;;;;;;;38.20;18.80;;;11.80;99.90;;;;;;6251845;22;20065;-89
2023/10/24 03:27:53;;;;;;;32.92;18.20;;;12.00;99.90;;;;;;6249068;22;20436;-89
2023/10/24 03:30:20;;;;;;;34.03;18.50;;;12.20;99.90;;;;;;6247768;22;20062;-90
2023/10/24 03:32:45;;;;;;;35.50;18.23;;;11.80;99.90;;;;;;6248801;22;20016;-89
2023/10/24 03:35:11;;;;;;;31.73;17.38;;;11.90;99.90;;;;;;6248796;22;20019;-89
2023/10/24 03:37:37;;;;;;;31.95;18.17;;;11.90;99.90;;;;;;6247820;22;20012;-89
2023/10/24 03:40:03;;;;;;;38.08;19.00;;;12.40;99.90;;;;;;6248515;22;20016;-89
2023/10/24 03:42:30;;;;;;;35.55;19.45;;;10.90;99.90;;;;;;6247882;22;20019;-89
2023/10/24 03:44:56;;;;;;;34.58;18.30;;;10.90;99.90;;;;;;6248607;22;20026;-89
2023/10/24 03:47:21;;;;;;;32.53;17.33;;;11.90;99.90;;;;;;6248398;22;20054;-89
2023/10/24 03:49:47;;;;;;;32.45;17.55;;;10.90;99.90;;;;;;6248106;22;20016;-88
2023/10/24 03:52:13;;;;;;;34.53;17.17;;;10.90;99.90;;;;;;6248698;22;20404;-89
2023/10/24 03:54:38;;;;;;;36.05;17.85;;;12.00;99.90;;;;;;6248838;22;20069;-89
2023/10/24 03:57:04;;;;;;;34.45;17.65;;;12.00;99.90;;;;;;6248114;22;20008;-89
2023/10/24 03:59:30;;;;;;;31.48;16.85;;;11.70;99.90;;;;;;6248459;22;20020;-89
2023/10/24 04:01:56;;;;;;;35.78;17.10;;;12.40;99.90;;;;;;6248146;22;20390;-89
2023/10/24 04:04:22;;;;;;;36.13;17.60;;;12.10;99.90;;;;;;6247271;22;20016;-89
2023/10/24 04:06:48;;;;;;;33.53;16.88;;;10.90;99.90;;;;;;6248843;22;20046;-89
2023/10/24 04:09:13;;;;;;;36.55;16.98;;;12.30;99.90;;;;;;6247920;22;20031;-89
2023/10/24 04:11:39;;;;;;;27.83;14.13;;;12.50;99.90;;;;;;6249235;22;20016;-89
2023/10/24 04:14:05;;;;;;;27.70;14.93;;;11.30;99.90;;;;;;6252566;22;20020;-88
2023/10/24 04:16:32;;;;;;;26.23;14.45;;;11.10;99.90;;;;;;6256739;22;20018;-88
2023/10/24 04:18:58;;;;;;;28.13;14.30;;;11.90;99.90;;;;;;6251624;22;20027;-89
2023/10/24 04:21:24;;;;;;;28.13;14.57;;;12.20;99.90;;;;;;6248524;22;20139;-89
2023/10/24 04:23:50;;;;;;;29.60;14.80;;;12.60;99.90;;;;;;6248406;22;20019;-88
2023/10/24 04:26:16;;;;;;;27.20;14.00;;;11.10;99.90;;;;;;6246765;22;20016;-89
2023/10/24 04:28:41;;;;;;;26.15;14.25;;;12.30;99.90;;;;;;6250291;22;20023;-89
2023/10/24 04:31:08;;;;;;;27.13;14.18;;;12.30;99.90;;;;;;6251066;22;20354;-89
2023/10/24 04:33:34;;;;;;;28.20;14.32;;;12.10;99.90;;;;;;6253753;22;20121;-89
2023/10/24 04:35:59;;;;;;;30.70;15.02;;;12.50;99.90;;;;;;6255552;22;20043;-88
2023/10/24 04:38:25;;;;;;;26.45;14.05;;;12.30;99.90;;;;;;6254510;22;20334;-88
2023/10/24 04:40:52;;;;;;;28.98;14.48;;;12.00;99.90;;;;;;6249247;22;20285;-89
2023/10/24 04:43:17;;;;;;;26.55;14.32;;;11.10;99.90;;;;;;6250126;22;20094;-88
2023/10/24 04:45:43;;;;;;;27.15;15.02;;;12.50;99.90;;;;;;6249104;22;20054;-88
2023/10/24 04:48:09;;;;;;;27.05;14.82;;;12.30;99.90;;;;;;6251720;22;20012;-89
2023/10/24 04:50:39;;;;;;;26.23;14.35;;;11.10;99.90;;;;;;6252997;22;20094;-88
2023/10/24 04:53:05;;;;;;;29.60;14.70;;;11.10;99.90;;;;;;6251074;22;20012;-88
2023/10/24 04:55:31;;;;;;;23.65;12.98;;;11.50;99.90;;;;;;6252760;22;20020;-89
2023/10/24 04:57:57;;;;;;;28.65;14.25;;;12.00;99.90;;;;;;6252208;22;20014;-88
2023/10/24 05:00:24;;;;;;;25.88;13.60;;;12.60;99.90;;;;;;6248485;22;20020;-88
2023/10/24 05:02:51;;;;;;;23.42;13.20;;;11.10;99.90;;;;;;6252856;22;20086;-88
2023/10/24 05:05:17;;;;;;;27.70;13.93;;;12.50;99.90;;;;;;6249130;22;20371;-88
2023/10/24 05:07:43;;;;;;;25.50;12.57;;;11.10;99.90;;;;;;6249942;22;20115;-88
2023/10/24 05:10:10;;;;;;;22.67;12.32;;;12.30;99.90;;;;;;6249281;22;20019;-88
2023/10/24 05:12:38;;;;;;;23.10;12.20;;;11.10;99.90;;;;;;6250999;22;20012;-88
2023/10/24 05:15:04;;;;;;;21.95;11.75;;;11.70;99.90;;;;;;6250031;22;20447;-88
2023/10/24 05:17:51;;;;;;;20.95;11.45;;;11.00;99.90;;;;;;6249719;22;20011;-88
2023/10/24 05:20:17;;;;;;;19.60;11.20;;;11.90;99.90;;;;;;6249731;22;20062;-88
2023/10/24 05:22:42;;;;;;;20.75;11.68;;;12.40;99.90;;;;;;6258486;22;20012;-87
2023/10/24 05:25:08;;;;;;;18.63;11.23;;;12.20;99.90;;;;;;6250614;22;20008;-88
2023/10/24 05:27:34;;;;;;;19.67;10.73;;;12.40;99.90;;;;;;6250064;22;20087;-88
2023/10/24 05:29:59;;;;;;;20.35;11.65;;;12.10;99.90;;;;;;6249208;22;20019;-88
2023/10/24 05:32:25;;;;;;;20.75;11.68;;;12.10;99.90;;;;;;6249667;22;20020;-89
2023/10/24 05:34:51;;;;;;;21.35;11.57;;;11.90;99.90;;;;;;6249593;22;20015;-87
2023/10/24 05:37:19;;;;;;;24.25;11.98;;;11.50;99.90;;;;;;6249049;22;20012;-88
2023/10/24 05:39:45;;;;;;;20.88;11.25;;;12.00;99.90;;;;;;6248161;22;20019;-88
2023/10/24 05:42:11;;;;;;;18.63;11.23;;;12.40;99.90;;;;;;6248299;22;20012;-88
2023/10/24 05:44:36;;;;;;;20.15;11.55;;;12.10;99.90;;;;;;6250417;22;20016;-88
2023/10/24 05:47:02;;;;;;;19.38;10.90;;;12.30;99.90;;;;;;6249967;22;20018;-88
2023/10/24 05:49:29;;;;;;;24.23;11.65;;;11.00;99.90;;;;;;6248494;22;20024;-88
2023/10/24 05:51:55;;;;;;;22.55;10.68;;;11.90;99.90;;;;;;6250000;22;20016;-88
2023/10/24 05:54:20;;;;;;;21.63;10.90;;;11.70;99.90;;;;;;6249048;22;20015;-88
2023/10/24 05:56:46;;;;;;;19.67;10.15;;;11.70;99.90;;;;;;6248283;22;20043;-88
2023/10/24 05:59:11;;;;;;;19.13;10.38;;;12.20;99.90;;;;;;6249203;22;20020;-89
2023/10/24 06:01:37;;;;;;;18.40;9.93;;;11.10;99.90;;;;;;6249347;22;20094;-88
2023/10/24 06:04:03;;;;;;;17.50;9.38;;;12.10;99.90;;;;;;6253242;22;20463;-88
2023/10/24 06:06:28;;;;;;;17.30;9.40;;;10.80;99.90;;;;;;6256414;22;20091;-88
2023/10/24 06:08:54;;;;;;;18.73;8.73;;;11.80;99.90;;;;;;6249612;22;20448;-88
2023/10/24 06:11:20;;;;;;;21.15;10.20;;;10.90;99.90;;;;;;6248186;22;20012;-88
2023/10/24 06:13:45;;;;;;;17.80;9.35;;;12.00;99.90;;;;;;6249221;22;20498;-88
2023/10/24 06:16:18;;;;;;;16.73;9.52;;;12.10;99.90;;;;;;6249127;22;20018;-83
2023/10/24 06:18:44;;;;;;;15.30;8.57;;;10.90;99.90;;;;;;6249717;22;20027;-86
2023/10/24 06:21:12;;;;;;;16.02;9.35;;;10.90;99.90;;;;;;6248965;22;20020;-86
2023/10/24 06:23:38;;;;;;;16.90;9.00;;;10.90;99.90;;;;;;6273815;22;20398;-84
2023/10/24 06:26:04;;;;;;;15.65;8.75;;;11.80;99.90;;;;;;6247417;22;20019;-84
2023/10/24 06:28:29;;;;;;;16.00;8.50;;;10.90;99.90;;;;;;6246633;22;20098;-85
2023/10/24 06:31:00;;;;;;;15.90;8.88;;;10.90;99.90;;;;;;6247736;22;20058;-85
2023/10/24 06:33:29;;;;;;;14.93;8.07;;;12.10;99.90;;;;;;6274802;22;20367;-86
2023/10/24 06:35:56;;;;;;;16.02;8.55;;;10.90;99.90;;;;;;6275593;22;20027;-86
2023/10/24 06:38:22;;;;;;;17.00;8.20;;;10.90;99.90;;;;;;6248655;22;20012;-85
2023/10/24 06:40:48;;;;;;;13.82;7.85;;;11.00;99.90;;;;;;6276024;22;20011;-86
2023/10/24 06:43:14;;;;;;;17.92;8.38;;;12.10;99.90;;;;;;6276414;22;20359;-87
2023/10/24 06:45:49;;;;;;;14.25;7.95;;;12.10;99.90;;;;;;6248686;22;20011;-87
2023/10/24 06:48:14;;;;;;;15.50;8.50;;;12.20;99.90;;;;;;6249662;22;20094;-85
2023/10/24 06:50:40;;;;;;;16.75;8.73;;;12.30;99.90;;;;;;6248432;22;20456;-87
2023/10/24 06:53:11;;;;;;;16.23;8.48;;;12.20;99.90;;;;;;6248689;22;20060;-87
2023/10/24 06:55:37;;;;;;;17.10;8.85;;;11.90;99.90;;;;;;6250477;22;20052;-86
2023/10/24 06:58:03;;;;;;;14.18;8.07;;;11.80;99.90;;;;;;6249261;22;20004;-87
2023/10/24 07:00:29;;;;;;;16.02;7.97;;;11.00;99.90;;;;;;6247770;22;20015;-86
2023/10/24 07:02:55;;;;;;;15.45;8.30;;;11.00;99.90;;;;;;6248889;22;20019;-87
2023/10/24 07:05:21;;;;;;;14.95;7.63;;;12.50;99.90;;;;;;6275322;22;20039;-86
2023/10/24 07:07:46;;;;;;;16.00;8.23;;;12.40;99.90;;;;;;6248525;22;20012;-86
2023/10/24 07:10:12;;;;;;;13.23;7.38;;;12.40;99.90;;;;;;6248408;22;20523;-86
2023/10/24 07:12:38;;;;;;;15.65;7.22;;;11.00;99.90;;;;;;6248538;22;20028;-86
2023/10/24 07:15:04;;;;;;;11.73;6.65;;;11.20;99.90;;;;;;6248048;22;20028;-86
2023/10/24 07:17:30;;;;;;;12.38;6.97;;;11.00;99.90;;;;;;6248450;22;20070;-85
2023/10/24 07:19:59;;;;;;;12.98;7.03;;;11.00;99.90;;;;;;6245915;22;20023;-84
2023/10/24 07:22:26;;;;;;;12.93;6.88;;;11.00;99.90;;;;;;6247303;22;20023;-84
2023/10/24 07:24:52;;;;;;;14.32;7.40;;;12.50;99.90;;;;;;6247103;22;20090;-88
2023/10/24 07:27:18;;;;;;;13.88;7.28;;;11.00;99.90;;;;;;6248689;22;20018;-88
2023/10/24 07:29:44;;;;;;;13.15;7.15;;;10.90;99.90;;;;;;6247753;22;20019;-89
2023/10/24 07:32:09;;;;;;;14.50;8.15;;;11.80;99.90;;;;;;6249444;22;20015;-85
2023/10/24 07:34:35;;;;;;;16.33;7.70;;;11.30;99.90;;;;;;6247174;22;20463;-85
2023/10/24 07:37:01;;;;;;;13.40;7.57;;;11.90;99.90;;;;;;6248598;22;20368;-85
2023/10/24 07:39:27;;;;;;;15.65;8.30;;;12.00;99.90;;;;;;6275224;22;20026;-85
2023/10/24 07:41:53;;;;;;;14.68;8.60;;;10.90;99.90;;;;;;6274057;22;20008;-85
2023/10/24 07:44:19;;;;;;;19.17;8.77;;;11.90;99.90;;;;;;6247258;22;20122;-85
2023/10/24 07:46:45;;;;;;;14.10;7.88;;;12.40;99.90;;;;;;6248119;22;20035;-83
2023/10/24 07:49:14;;;;;;;16.73;9.07;;;12.10;99.90;;;;;;6247294;22;20028;-84
2023/10/24 07:51:39;;;;;;;16.15;8.93;;;12.30;99.90;;;;;;6249720;22;20091;-86
2023/10/24 07:54:05;;;;;;;17.15;8.90;;;11.00;99.90;;;;;;6274666;22;20023;-86
2023/10/24 07:56:30;;;;;;;16.27;9.07;;;11.00;99.90;;;;;;6247165;22;20364;-84
2023/10/24 07:58:56;;;;;;;16.08;8.70;;;11.00;99.90;;;;;;6250835;22;20027;-85
2023/10/24 08:01:22;;;;;;;15.38;8.52;;;12.30;99.90;;;;;;6247147;22;20015;-85
2023/10/24 08:03:48;;;;;;;16.88;9.15;;;11.90;99.90;;;;;;6248979;22;20344;-85
2023/10/24 08:06:14;;;;;;;15.85;8.20;;;11.00;99.90;;;;;;6249792;22;20025;-85
2023/10/24 08:08:44;;;;;;;14.80;8.43;;;11.10;99.90;;;;;;6250189;22;20016;-86
2023/10/24 08:11:11;;;;;;;15.75;8.80;;;11.70;99.90;;;;;;6248790;22;20074;-85
2023/10/24 08:13:37;;;;;;;14.48;8.30;;;11.10;99.90;;;;;;6249866;22;20019;-86
2023/10/24 08:16:02;;;;;;;14.90;8.38;;;11.10;99.90;;;;;;6250325;22;20012;-86
2023/10/24 08:18:28;;;;;;;16.58;8.48;;;11.10;99.90;;;;;;6249262;22;20011;-85
2023/10/24 08:20:54;;;;;;;15.35;8.88;;;11.60;99.90;;;;;;6277113;22;20057;-86
2023/10/24 08:23:20;;;;;;;17.35;9.30;;;11.00;99.90;;;;;;6249413;22;20016;-86
2023/10/24 08:25:46;;;;;;;16.95;8.68;;;12.40;99.90;;;;;;6250362;22;20497;-86
2023/10/24 08:28:12;;;;;;;15.85;9.00;;;12.20;99.90;;;;;;6254712;22;20022;-86
2023/10/24 08:30:46;;;;;;;17.08;9.23;;;12.40;99.90;;;;;;6250558;22;20012;-85
2023/10/24 08:33:12;;;;;;;15.45;8.82;;;11.10;99.90;;;;;;6250024;22;20051;-84
2023/10/24 08:35:37;;;;;;;15.27;9.40;;;12.40;99.90;;;;;;6249914;22;20012;-84
2023/10/24 08:38:03;;;;;;;18.38;9.52;;;12.40;99.90;;;;;;6249368;22;20773;-84
2023/10/24 08:40:29;;;;;;;17.95;8.88;;;11.80;99.90;;;;;;6249396;22;20016;-84
2023/10/24 08:42:56;;;;;;;17.27;9.45;;;11.40;99.90;;;;;;6277369;22;20336;-84
2023/10/24 08:45:21;;;;;;;16.77;9.38;;;12.10;99.90;;;;;;6248796;22;20012;-84
2023/10/24 08:47:48;;;;;;;16.73;9.15;;;12.20;99.90;;;;;;6249989;22;20077;-85
2023/10/24 08:50:14;;;;;;;16.60;9.20;;;12.40;99.90;;;;;;6248038;22;20020;-84
2023/10/24 08:52:40;;;;;;;16.15;8.60;;;11.00;99.90;;;;;;6248944;22;20008;-85
2023/10/24 08:55:06;;;;;;;16.05;9.00;;;12.10;99.90;;;;;;6248566;22;20467;-84
2023/10/24 08:57:40;;;;;;;15.77;9.30;;;11.10;99.90;;;;;;6246902;22;20012;-85
2023/10/24 09:00:08;;;;;;;16.58;8.75;;;12.50;99.90;;;;;;6248543;22;20015;-85
2023/10/24 09:02:35;;;;;;;14.32;8.32;;;11.10;99.90;;;;;;6249680;22;20026;-85
2023/10/24 09:05:01;;;;;;;15.13;7.82;;;11.10;99.90;;;;;;6249533;22;20087;-85
2023/10/24 09:07:27;;;;;;;13.55;7.60;;;12.20;99.90;;;;;;6248705;22;20019;-86
2023/10/24 09:09:53;;;;;;;13.05;7.15;;;11.80;99.90;;;;;;6249878;22;20167;-85
2023/10/24 09:12:21;;;;;;;13.48;6.97;;;12.30;99.90;;;;;;6249580;22;20388;-85
2023/10/24 09:14:48;;;;;;;12.77;7.13;;;11.20;99.90;;;;;;6248022;22;20098;-86
2023/10/24 09:17:17;;;;;;;13.65;7.32;;;11.20;99.90;;;;;;6249864;22;20020;-85
2023/10/24 09:19:43;;;;;;;14.60;7.22;;;12.20;99.90;;;;;;6250179;22;20070;-86
2023/10/24 09:22:14;;;;;;;14.38;7.25;;;12.20;99.90;;;;;;6250367;22;20344;-86
2023/10/24 09:24:46;;;;;;;12.10;6.80;;;11.30;99.90;;;;;;6249581;22;20020;-86
2023/10/24 09:27:16;;;;;;;12.20;6.47;;;11.30;99.90;;;;;;6249120;22;20015;-86
2023/10/24 09:29:42;;;;;;;12.57;6.63;;;11.40;99.90;;;;;;6252759;22;20020;-85
2023/10/24 09:32:16;;;;;;;11.23;6.03;;;12.80;99.90;;;;;;6248576;22;20030;-86
2023/10/24 09:34:43;;;;;;;13.60;6.63;;;11.40;99.90;;;;;;6248586;22;20023;-86
2023/10/24 09:37:10;;;;;;;12.05;6.30;;;12.60;99.90;;;;;;6249501;22;20020;-86
2023/10/24 09:39:56;;;;;;;12.40;6.55;;;12.60;99.90;;;;;;6249901;22;20019;-85
2023/10/24 09:42:29;;;;;;;12.13;5.63;;;12.50;99.90;;;;;;6275584;22;20022;-86
2023/10/24 09:44:57;;;;;;;12.97;6.23;;;12.40;99.90;;;;;;6277377;22;20317;-88
2023/10/24 09:47:23;;;;;;;10.73;5.47;;;11.30;99.90;;;;;;6249407;22;20253;-87
2023/10/24 09:49:57;;;;;;;10.98;5.30;;;11.40;99.90;;;;;;6248518;22;20019;-85
2023/10/24 09:52:25;;;;;;;11.65;5.80;;;12.70;99.90;;;;;;6248675;22;20023;-87
2023/10/24 09:55:01;;;;;;;11.35;5.70;;;12.80;99.90;;;;;;6246582;22;20026;-87
2023/10/24 09:57:28;;;;;;;10.68;5.03;;;10.70;99.90;;;;;;6253286;22;20015;-88
2023/10/24 09:59:58;;;;;;;11.90;5.50;;;11.30;99.90;;;;;;6258574;22;20023;-87
2023/10/24 10:02:30;;;;;;;11.65;6.07;;;12.40;99.90;;;;;;6248607;22;20051;-87
2023/10/24 10:04:56;;;;;;;11.60;5.88;;;12.60;99.90;;;;;;6249527;22;20223;-87
2023/10/24 10:07:36;;;;;;;13.27;6.18;;;11.60;99.90;;;;;;6249655;22;20485;-87
2023/10/24 10:10:04;;;;;;;12.63;5.90;;;11.40;99.90;;;;;;6250337;22;20086;-87
2023/10/24 10:12:33;;;;;;;11.93;6.07;;;11.30;99.90;;;;;;6248999;22;20020;-87
2023/10/24 10:15:07;;;;;;;13.93;6.30;;;12.50;99.90;;;;;;6249756;22;20023;-87
2023/10/24 10:17:44;;;;;;;11.27;5.82;;;11.30;99.90;;;;;;6251843;22;20090;-87
2023/10/24 10:20:43;;;;;;;11.40;5.63;;;12.90;99.90;;;;;;6248450;22;20016;-87
2023/10/24 10:23:27;;;;;;;12.38;6.47;;;11.30;99.90;;;;;;6248388;22;20085;-88
2023/10/24 10:25:59;;;;;;;12.25;6.57;;;11.40;99.90;;;;;;6249178;22;20336;-87
2023/10/24 10:29:14;;;;;;;12.63;6.38;;;11.40;99.90;;;;;;6248325;22;20154;-87
2023/10/24 10:31:39;;;;;;;;;;;11.40;99.90;;;;;;6248617;22;20020;-87
2023/10/24 10:34:06;;;;;;;12.13;6.53;;;11.30;99.90;;;;;;6248367;22;19922;-87
2023/10/24 10:36:32;;;;;;;12.05;6.20;;;12.20;99.90;;;;;;6248781;22;20069;-87
2023/10/24 10:39:05;;;;;;;12.00;6.78;;;12.70;99.90;;;;;;6248064;22;20416;-87
2023/10/24 10:41:32;;;;;;;13.15;7.32;;;12.30;99.90;;;;;;6247276;22;20016;-89
2023/10/24 10:44:02;;;;;;;12.77;6.60;;;12.60;99.90;;;;;;6249370;22;20019;-89
2023/10/24 10:46:32;;;;;;;14.02;7.28;;;11.40;99.90;;;;;;6248637;22;20054;-90
2023/10/24 10:49:06;;;;;;;14.48;7.93;;;12.70;99.90;;;;;;6247691;22;20016;-89
2023/10/24 10:51:33;;;;;;;13.73;7.78;;;11.50;99.90;;;;;;6246559;22;20503;-90
2023/10/24 10:54:19;;;;;;;14.45;8.32;;;11.50;99.90;;;;;;6249630;22;20097;-88
2023/10/24 10:56:47;;;;;;;12.82;7.30;;;11.80;99.90;;;;;;6248404;22;20023;-88
2023/10/24 10:59:45;;;;;;;12.68;7.13;;;11.70;99.90;;;;;;6252432;22;20020;-86
2023/10/24 11:02:49;;;;;;;12.65;7.03;;;11.80;99.90;;;;;;6276282;22;20020;-88
2023/10/24 11:05:37;;;;;;;13.50;7.25;;;11.90;99.90;;;;;;6248808;22;20091;-88
2023/10/24 11:08:04;;;;;;;14.70;7.47;;;11.90;99.90;;;;;;6248345;22;20341;-88
2023/10/24 11:10:49;;;;;;;13.55;7.53;;;12.00;99.90;;;;;;6248326;22;20459;-87
2023/10/24 11:13:32;;;;;;;13.80;8.15;;;12.10;99.90;;;;;;6247533;22;20320;-88
2023/10/24 11:15:58;;;;;;;14.95;8.18;;;12.90;99.90;;;;;;6249685;22;20039;-87
2023/10/24 11:18:26;;;;;;;14.65;7.85;;;13.40;99.90;;;;;;6248845;22;20028;-87
2023/10/24 11:20:52;;;;;;;13.68;7.90;;;13.70;99.90;;;;;;6249053;22;20015;-87
2023/10/24 11:23:18;;;;;;;15.00;7.80;;;13.00;99.90;;;;;;6249645;22;20019;-88
2023/10/24 11:25:44;;;;;;;14.68;8.43;;;13.00;99.90;;;;;;6249267;22;20032;-86
2023/10/24 11:28:09;;;;;;;14.90;8.50;;;12.60;99.90;;;;;;6246972;22;20015;-87
2023/10/24 11:30:35;;;;;;;14.25;7.68;;;12.40;99.90;;;;;;6267668;22;20026;-88
2023/10/24 11:33:02;;;;;;;13.30;7.90;;;12.50;99.90;;;;;;6249448;22;20016;-88
2023/10/24 11:35:28;;;;;;;14.20;7.70;;;12.50;99.90;;;;;;6247503;22;20023;-87
2023/10/24 11:37:53;;;;;;;14.70;8.27;;;12.70;99.90;;;;;;6249130;22;20019;-87
2023/10/24 11:40:19;;;;;;;14.45;8.10;;;13.20;99.90;;;;;;6248489;22;20015;-88
2023/10/24 11:42:45;;;;;;;16.10;7.60;;;13.90;99.90;;;;;;6274607;22;20020;-89
2023/10/24 11:45:10;;;;;;;14.02;8.38;;;13.00;99.90;;;;;;6249782;22;20126;-87
2023/10/24 11:47:36;;;;;;;15.93;8.80;;;13.10;99.90;;;;;;6248766;22;20020;-88
2023/10/24 11:50:02;;;;;;;14.30;7.70;;;13.00;99.90;;;;;;6248285;22;20317;-87
2023/10/24 11:52:28;;;;;;;14.48;8.98;;;13.00;99.90;;;;;;6249394;22;20368;-88
2023/10/24 11:54:53;;;;;;;13.07;7.50;;;13.70;99.90;;;;;;6252297;22;20378;-87
2023/10/24 11:57:22;;;;;;;13.82;8.35;;;13.70;99.90;;;;;;6248940;22;20479;-88
2023/10/24 11:59:49;;;;;;;14.25;7.60;;;12.90;99.90;;;;;;6250096;22;20027;-87
2023/10/24 12:02:15;;;;;;;15.73;7.78;;;12.90;99.90;;;;;;6249531;22;20092;-88
2023/10/24 12:04:41;;;;;;;13.00;7.38;;;12.90;99.90;;;;;;6249881;22;20020;-89
2023/10/24 12:07:08;;;;;;;14.70;8.15;;;13.00;99.90;;;;;;6253032;22;20043;-90
2023/10/24 12:09:35;;;;;;;13.20;7.70;;;14.20;99.90;;;;;;6256676;22;20028;-90
2023/10/24 12:12:22;;;;;;;14.55;7.45;;;13.50;99.90;;;;;;6253926;22;20016;-88
2023/10/24 12:15:06;;;;;;;12.88;7.07;;;13.00;99.90;;;;;;6249701;22;20018;-89
2023/10/24 12:17:38;;;;;;;12.85;7.50;;;13.00;99.90;;;;;;6247039;22;20454;-88
2023/10/24 12:20:06;;;;;;;14.98;7.68;;;14.00;99.90;;;;;;6276188;22;20498;-89
2023/10/24 12:22:32;;;;;;;14.95;7.78;;;13.00;99.90;;;;;;6252333;22;20026;-87
2023/10/24 12:24:57;;;;;;;12.77;7.40;;;14.20;99.90;;;;;;6247514;22;20103;-87
2023/10/24 12:27:23;;;;;;;14.75;8.15;;;13.60;99.90;;;;;;6275690;22;20054;-87
2023/10/24 12:29:49;;;;;;;15.15;8.85;;;12.80;99.90;;;;;;6250965;22;20016;-87
2023/10/24 12:32:14;;;;;;;15.48;9.98;;;13.80;99.90;;;;;;6248052;22;20059;-87
2023/10/24 12:34:52;;;;;;;14.88;7.65;;;13.80;99.90;;;;;;6248741;22;20352;-88